Terminal Aerodrome Forecast
Issued by NWS

Home | Current Version | Previous Version | Text Only | Print | Product List | Glossary On
Versions: 1 2 3 4 5 6 7 8 9 10 11 12 13 14 15 16 17 18 19 20 21
000
FTPA31 PHFO 202300
TAFJRF
TAF
PHJR 202330Z 2100/2124 12007G12KT P6SM FEW035 SCT050
     FM210300 VRB04KT P6SM SCT035 BKN050
     FM210600 05003KT P6SM FEW035
     FM212100 11010KT P6SM FEW035 SCT050=

USA.gov is the U.S. government's official web portal to all federal, state and local government web resources and services.